sensor_id;sensor_type;location;lat;lon;timestamp;pressure;altitude;pressure_sealevel;temperature;humidity
5350;BME280;2697;42.144;24.794;2023-07-31T00:01:42;158666.09;;;23.54;68.94
5350;BME280;2697;42.144;24.794;2023-07-31T00:04:07;158652.81;;;23.49;69.95
5350;BME280;2697;42.144;24.794;2023-07-31T00:06:33;158656.81;;;23.51;70.47
5350;BME280;2697;42.144;24.794;2023-07-31T00:08:58;158642.22;;;23.45;70.95
5350;BME280;2697;42.144;24.794;2023-07-31T00:11:23;158631.53;;;23.41;71.70
5350;BME280;2697;42.144;24.794;2023-07-31T00:13:49;158634.19;;;23.42;70.79
5350;BME280;2697;42.144;24.794;2023-07-31T00:16:14;158644.88;;;23.46;70.78
5350;BME280;2697;42.144;24.794;2023-07-31T00:18:40;158656.81;;;23.51;70.46
5350;BME280;2697;42.144;24.794;2023-07-31T00:21:05;158642.22;;;23.45;71.17
5350;BME280;2697;42.144;24.794;2023-07-31T00:23:30;158640.84;;;23.45;71.37
5350;BME280;2697;42.144;24.794;2023-07-31T00:25:56;158642.22;;;23.45;72.00
5350;BME280;2697;42.144;24.794;2023-07-31T00:28:21;158647.50;;;23.47;71.44
5350;BME280;2697;42.144;24.794;2023-07-31T00:30:46;158652.81;;;23.49;71.42
5350;BME280;2697;42.144;24.794;2023-07-31T00:33:12;158656.81;;;23.51;71.25
5350;BME280;2697;42.144;24.794;2023-07-31T00:35:37;158658.13;;;23.51;71.50
5350;BME280;2697;42.144;24.794;2023-07-31T00:38:02;158666.09;;;23.54;71.52
5350;BME280;2697;42.144;24.794;2023-07-31T00:40:28;158660.78;;;23.52;71.99
5350;BME280;2697;42.144;24.794;2023-07-31T00:42:53;158620.94;;;23.37;71.72
5350;BME280;2697;42.144;24.794;2023-07-31T00:45:19;158678.13;;;23.59;71.46
5350;BME280;2697;42.144;24.794;2023-07-31T00:47:44;158684.75;;;23.62;71.37
5350;BME280;2697;42.144;24.794;2023-07-31T00:50:10;158691.44;;;23.64;71.70
5350;BME280;2697;42.144;24.794;2023-07-31T00:52:35;158692.78;;;23.65;71.61
5350;BME280;2697;42.144;24.794;2023-07-31T00:55:02;158695.41;;;23.66;71.18
5350;BME280;2697;42.144;24.794;2023-07-31T00:57:28;158710.03;;;23.71;70.96
5350;BME280;2697;42.144;24.794;2023-07-31T00:59:53;158735.28;;;23.81;70.56
5350;BME280;2697;42.144;24.794;2023-07-31T01:02:19;158726.00;;;23.77;70.73
5350;BME280;2697;42.144;24.794;2023-07-31T01:04:44;158729.97;;;23.79;70.69
5350;BME280;2697;42.144;24.794;2023-07-31T01:07:19;158729.97;;;23.79;71.10
5350;BME280;2697;42.144;24.794;2023-07-31T01:12:22;158735.28;;;23.81;70.73
5350;BME280;2697;42.144;24.794;2023-07-31T01:17:31;158739.25;;;23.82;71.02
5350;BME280;2697;42.144;24.794;2023-07-31T01:20:01;158729.97;;;23.79;70.98
5350;BME280;2697;42.144;24.794;2023-07-31T01:29:23;158695.41;;;23.66;72.04
5350;BME280;2697;42.144;24.794;2023-07-31T01:31:24;158684.75;;;23.62;72.29
5350;BME280;2697;42.144;24.794;2023-07-31T01:33:53;158670.13;;;23.56;72.53
5350;BME280;2697;42.144;24.794;2023-07-31T01:36:19;158647.50;;;23.47;72.67
5350;BME280;2697;42.144;24.794;2023-07-31T01:38:45;158646.19;;;23.47;73.07
5350;BME280;2697;42.144;24.794;2023-07-31T01:41:10;158639.50;;;23.44;72.90
5350;BME280;2697;42.144;24.794;2023-07-31T01:43:35;158640.84;;;23.45;72.96
5350;BME280;2697;42.144;24.794;2023-07-31T01:46:01;158608.94;;;23.32;73.39
5350;BME280;2697;42.144;24.794;2023-07-31T01:48:26;158604.97;;;23.31;74.21
5350;BME280;2697;42.144;24.794;2023-07-31T01:50:51;158581.03;;;23.22;74.78
5350;BME280;2697;42.144;24.794;2023-07-31T01:53:17;158578.38;;;23.21;75.32
5350;BME280;2697;42.144;24.794;2023-07-31T01:55:42;158581.03;;;23.22;75.44
5350;BME280;2697;42.144;24.794;2023-07-31T01:58:08;158559.78;;;23.14;76.09
5350;BME280;2697;42.144;24.794;2023-07-31T02:00:33;158543.81;;;23.08;76.15
5350;BME280;2697;42.144;24.794;2023-07-31T02:02:59;158514.59;;;22.96;76.46
5350;BME280;2697;42.144;24.794;2023-07-31T02:05:26;158497.34;;;22.90;77.23
5350;BME280;2697;42.144;24.794;2023-07-31T02:07:51;158493.31;;;22.88;77.75
5350;BME280;2697;42.144;24.794;2023-07-31T02:10:17;158489.34;;;22.87;77.99
5350;BME280;2697;42.144;24.794;2023-07-31T02:12:42;158488.00;;;22.86;78.49
5350;BME280;2697;42.144;24.794;2023-07-31T02:15:08;158481.34;;;22.84;78.97
5350;BME280;2697;42.144;24.794;2023-07-31T02:17:33;158490.66;;;22.87;78.55
5350;BME280;2697;42.144;24.794;2023-07-31T02:19:58;158486.69;;;22.86;78.81
5350;BME280;2697;42.144;24.794;2023-07-31T02:22:24;158493.31;;;22.88;78.52
5350;BME280;2697;42.144;24.794;2023-07-31T02:24:49;158517.22;;;22.97;76.80
5350;BME280;2697;42.144;24.794;2023-07-31T02:27:14;158539.84;;;23.06;76.24
5350;BME280;2697;42.144;24.794;2023-07-31T02:29:40;158610.28;;;23.33;74.49
5350;BME280;2697;42.144;24.794;2023-07-31T02:32:05;158618.28;;;23.36;74.44
5350;BME280;2697;42.144;24.794;2023-07-31T02:34:31;158619.59;;;23.37;74.58
5350;BME280;2697;42.144;24.794;2023-07-31T02:36:56;158628.88;;;23.40;74.89
5350;BME280;2697;42.144;24.794;2023-07-31T02:39:21;158642.22;;;23.45;75.00
5350;BME280;2697;42.144;24.794;2023-07-31T02:41:47;158655.47;;;23.50;75.68
5350;BME280;2697;42.144;24.794;2023-07-31T02:44:12;158686.09;;;23.62;76.94
5350;BME280;2697;42.144;24.794;2023-07-31T02:46:39;158710.03;;;23.71;77.88
5350;BME280;2697;42.144;24.794;2023-07-31T02:49:05;158724.66;;;23.77;80.52
5350;BME280;2697;42.144;24.794;2023-07-31T02:51:30;158759.22;;;23.90;82.16
5350;BME280;2697;42.144;24.794;2023-07-31T02:53:55;158780.50;;;23.98;83.49
5350;BME280;2697;42.144;24.794;2023-07-31T02:56:21;158819.06;;;24.13;85.35
5350;BME280;2697;42.144;24.794;2023-07-31T02:58:46;158809.75;;;24.09;87.11
5350;BME280;2697;42.144;24.794;2023-07-31T03:01:12;158832.34;;;24.18;86.67
5350;BME280;2697;42.144;24.794;2023-07-31T03:03:37;158809.75;;;24.09;89.01
5350;BME280;2697;42.144;24.794;2023-07-31T03:06:02;158828.38;;;24.16;90.78
5350;BME280;2697;42.144;24.794;2023-07-31T03:08:28;158831.03;;;24.17;91.78
5350;BME280;2697;42.144;24.794;2023-07-31T03:10:53;158815.09;;;24.11;94.88
5350;BME280;2697;42.144;24.794;2023-07-31T03:13:18;158878.94;;;24.36;94.73
5350;BME280;2697;42.144;24.794;2023-07-31T03:15:44;158854.97;;;24.27;96.77
5350;BME280;2697;42.144;24.794;2023-07-31T03:18:09;158865.63;;;24.31;97.34
5350;BME280;2697;42.144;24.794;2023-07-31T03:20:35;158874.97;;;24.34;99.78
5350;BME280;2697;42.144;24.794;2023-07-31T03:23:00;158864.31;;;24.30;100.00
5350;BME280;2697;42.144;24.794;2023-07-31T03:25:26;158768.56;;;23.94;100.00
5350;BME280;2697;42.144;24.794;2023-07-31T03:27:52;158726.00;;;23.77;100.00
5350;BME280;2697;42.144;24.794;2023-07-31T03:30:17;158597.00;;;23.28;100.00
5350;BME280;2697;42.144;24.794;2023-07-31T03:32:43;158525.25;;;23.00;100.00
5350;BME280;2697;42.144;24.794;2023-07-31T03:35:08;158476.03;;;22.82;100.00
5350;BME280;2697;42.144;24.794;2023-07-31T03:37:33;150245.28;;;22.60;100.00
5350;BME280;2697;42.144;24.794;2023-07-31T03:39:59;100458.34;;;22.52;100.00
5350;BME280;2697;42.144;24.794;2023-07-31T03:42:24;73173.56;;;22.40;100.00
5350;BME280;2697;42.144;24.794;2023-07-31T03:44:50;48854.41;;;22.32;100.00
5350;BME280;2697;42.144;24.794;2023-07-31T03:47:15;44705.06;;;22.36;100.00
5350;BME280;2697;42.144;24.794;2023-07-31T03:49:40;39857.69;;;22.24;100.00
5350;BME280;2697;42.144;24.794;2023-07-31T03:52:06;36742.97;;;22.12;100.00
5350;BME280;2697;42.144;24.794;2023-07-31T03:54:31;28461.22;;;21.92;100.00
5350;BME280;2697;42.144;24.794;2023-07-31T03:56:57;19858.88;;;21.72;100.00
5350;BME280;2697;42.144;24.794;2023-07-31T03:59:22;13339.78;;;21.67;100.00
5350;BME280;2697;42.144;24.794;2023-07-31T04:01:47;6832.03;;;21.57;100.00
5350;BME280;2697;42.144;24.794;2023-07-31T04:04:14;1361.41;;;21.37;100.00
5350;BME280;2697;42.144;24.794;2023-07-31T04:06:40;-5461.56;;;21.20;100.00
5350;BME280;2697;42.144;24.794;2023-07-31T04:09:05;-7504.59;;;21.07;100.00
5350;BME280;2697;42.144;24.794;2023-07-31T04:11:30;-9546.59;;;21.01;100.00
5350;BME280;2697;42.144;24.794;2023-07-31T04:13:56;-11246.50;;;20.92;100.00
5350;BME280;2697;42.144;24.794;2023-07-31T04:16:21;-12266.34;;;20.89;100.00
5350;BME280;2697;42.144;24.794;2023-07-31T04:18:46;-11925.88;;;20.87;100.00
5350;BME280;2697;42.144;24.794;2023-07-31T04:21:12;-13286.13;;;20.88;100.00
5350;BME280;2697;42.144;24.794;2023-07-31T04:23:37;-15324.75;;;20.86;100.00
5350;BME280;2697;42.144;24.794;2023-07-31T04:26:03;-17702.38;;;20.87;100.00
5350;BME280;2697;42.144;24.794;2023-07-31T04:28:28;-18719.19;;;20.81;100.00
5350;BME280;2697;42.144;24.794;2023-07-31T04:30:56;-19061.16;;;20.90;100.00
5350;BME280;2697;42.144;24.794;2023-07-31T04:33:22;-18381.69;;;20.88;100.00
5350;BME280;2697;42.144;24.794;2023-07-31T04:35:52;-18722.41;;;20.92;100.00
5350;BME280;2697;42.144;24.794;2023-07-31T04:38:19;-19064.03;;;21.00;100.00
5350;BME280;2697;42.144;24.794;2023-07-31T04:40:44;-19064.88;;;21.03;100.00
5350;BME280;2697;42.144;24.794;2023-07-31T04:43:10;-19066.47;;;21.09;100.00
5350;BME280;2697;42.144;24.794;2023-07-31T04:45:35;-18051.22;;;21.22;100.00
5350;BME280;2697;42.144;24.794;2023-07-31T04:48:01;-16016.75;;;21.40;100.00
5350;BME280;2697;42.144;24.794;2023-07-31T04:50:26;-11935.94;;;21.47;100.00
5350;BME280;2697;42.144;24.794;2023-07-31T04:52:51;-10915.59;;;21.53;100.00
5350;BME280;2697;42.144;24.794;2023-07-31T04:55:17;-10576.19;;;21.60;100.00
5350;BME280;2697;42.144;24.794;2023-07-31T04:57:42;-9214.41;;;21.67;100.00
5350;BME280;2697;42.144;24.794;2023-07-31T05:00:08;-7170.19;;;21.74;100.00
5350;BME280;2697;42.144;24.794;2023-07-31T05:02:33;-6829.47;;;21.77;100.00
5350;BME280;2697;42.144;24.794;2023-07-31T05:04:58;-8535.94;;;21.94;100.00
5350;BME280;2697;42.144;24.794;2023-07-31T05:07:24;-5808.38;;;22.07;100.00
5350;BME280;2697;42.144;24.794;2023-07-31T05:09:49;-2394.66;;;22.27;100.00
5350;BME280;2697;42.144;24.794;2023-07-31T05:12:15;3761.78;;;22.45;100.00
5350;BME280;2697;42.144;24.794;2023-07-31T05:14:40;10275.91;;;22.70;100.00
5350;BME280;2697;42.144;24.794;2023-07-31T05:17:05;19555.06;;;22.89;100.00
5350;BME280;2697;42.144;24.794;2023-07-31T05:19:31;22660.13;;;23.11;100.00
5350;BME280;2697;42.144;24.794;2023-07-31T05:21:56;38195.44;;;23.25;100.00
5350;BME280;2697;42.144;24.794;2023-07-31T05:24:21;42709.22;;;23.47;100.00
5350;BME280;2697;42.144;24.794;2023-07-31T05:26:47;59027.47;;;23.55;100.00
5350;BME280;2697;42.144;24.794;2023-07-31T05:29:12;65640.97;;;23.55;100.00
5350;BME280;2697;42.144;24.794;2023-07-31T05:31:38;71583.25;;;23.69;100.00
5350;BME280;2697;42.144;24.794;2023-07-31T05:34:04;77191.22;;;23.85;100.00
5350;BME280;2697;42.144;24.794;2023-07-31T05:36:29;82826.63;;;24.13;100.00
5350;BME280;2697;42.144;24.794;2023-07-31T05:38:54;119100.09;;;24.35;100.00
5350;BME280;2697;42.144;24.794;2023-07-31T05:41:20;134060.81;;;24.75;100.00
5350;BME280;2697;42.144;24.794;2023-07-31T05:43:45;159201.00;;;25.59;100.00
5350;BME280;2697;42.144;24.794;2023-07-31T05:46:11;159491.38;;;26.70;100.00
5350;BME280;2697;42.144;24.794;2023-07-31T05:48:37;159735.28;;;27.63;100.00
5350;BME280;2697;42.144;24.794;2023-07-31T05:51:04;159948.69;;;28.45;100.00
5350;BME280;2697;42.144;24.794;2023-07-31T05:53:29;159968.69;;;28.52;100.00
5350;BME280;2697;42.144;24.794;2023-07-31T05:55:54;159910.06;;;28.30;97.00
5350;BME280;2697;42.144;24.794;2023-07-31T05:58:20;159835.34;;;28.01;100.00
5350;BME280;2697;42.144;24.794;2023-07-31T06:00:45;159819.31;;;27.95;100.00
5350;BME280;2697;42.144;24.794;2023-07-31T06:03:10;159787.34;;;27.83;100.00
5350;BME280;2697;42.144;24.794;2023-07-31T06:05:36;159727.28;;;27.60;100.00
5350;BME280;2697;42.144;24.794;2023-07-31T06:08:01;159733.94;;;27.63;100.00
5350;BME280;2697;42.144;24.794;2023-07-31T06:10:27;159938.06;;;28.41;96.16
5350;BME280;2697;42.144;24.794;2023-07-31T06:12:53;160246.25;;;29.58;93.70
5350;BME280;2697;42.144;24.794;2023-07-31T06:15:19;160708.38;;;31.34;75.19
5350;BME280;2697;42.144;24.794;2023-07-31T06:17:44;160708.38;;;31.34;71.39
5350;BME280;2697;42.144;24.794;2023-07-31T06:20:10;160826.00;;;31.79;67.60
5350;BME280;2697;42.144;24.794;2023-07-31T06:22:35;160906.16;;;32.10;63.31
5350;BME280;2697;42.144;24.794;2023-07-31T06:25:01;160604.16;;;30.95;67.98
5350;BME280;2697;42.144;24.794;2023-07-31T06:27:26;160791.22;;;31.66;68.37
5350;BME280;2697;42.144;24.794;2023-07-31T06:29:51;160693.72;;;31.29;66.63
5350;BME280;2697;42.144;24.794;2023-07-31T06:32:17;160606.81;;;30.96;67.88
5350;BME280;2697;42.144;24.794;2023-07-31T06:34:42;160681.66;;;31.24;65.05
5350;BME280;2697;42.144;24.794;2023-07-31T06:37:08;160860.75;;;31.92;65.34
5350;BME280;2697;42.144;24.794;2023-07-31T06:39:33;160876.78;;;31.98;62.14
5350;BME280;2697;42.144;24.794;2023-07-31T06:41:58;160974.38;;;32.36;61.92
5350;BME280;2697;42.144;24.794;2023-07-31T06:44:24;160920.88;;;32.15;60.56
5350;BME280;2697;42.144;24.794;2023-07-31T06:46:49;160756.47;;;31.53;62.46
5350;BME280;2697;42.144;24.794;2023-07-31T06:49:14;160721.75;;;31.39;64.06
5350;BME280;2697;42.144;24.794;2023-07-31T06:51:40;160907.50;;;32.10;62.63
5350;BME280;2697;42.144;24.794;2023-07-31T06:54:07;160756.47;;;31.53;63.09
5350;BME280;2697;42.144;24.794;2023-07-31T06:56:33;161061.28;;;32.69;58.25
5350;BME280;2697;42.144;24.794;2023-07-31T06:58:58;161029.19;;;32.56;58.31
5350;BME280;2697;42.144;24.794;2023-07-31T07:01:23;161043.91;;;32.62;58.63
5350;BME280;2697;42.144;24.794;2023-07-31T07:03:49;161098.69;;;32.83;58.03
5350;BME280;2697;42.144;24.794;2023-07-31T07:06:16;161109.47;;;32.87;56.15
5350;BME280;2697;42.144;24.794;2023-07-31T07:08:42;161104.09;;;32.85;56.21
5350;BME280;2697;42.144;24.794;2023-07-31T07:11:07;161112.13;;;32.88;56.77
5350;BME280;2697;42.144;24.794;2023-07-31T07:13:33;160989.09;;;32.41;56.89
5350;BME280;2697;42.144;24.794;2023-07-31T07:15:59;160948.94;;;32.26;58.16
5350;BME280;2697;42.144;24.794;2023-07-31T07:18:24;161046.56;;;32.63;57.37
5350;BME280;2697;42.144;24.794;2023-07-31T07:20:50;161146.88;;;33.01;55.78
5350;BME280;2697;42.144;24.794;2023-07-31T07:23:16;161191.00;;;33.18;54.95
5350;BME280;2697;42.144;24.794;2023-07-31T07:25:42;161047.91;;;32.64;55.67
5350;BME280;2697;42.144;24.794;2023-07-31T07:28:08;161049.22;;;32.64;56.86
5350;BME280;2697;42.144;24.794;2023-07-31T07:30:33;161249.88;;;33.40;54.43
5350;BME280;2697;42.144;24.794;2023-07-31T07:32:59;161223.09;;;33.30;54.28
5350;BME280;2697;42.144;24.794;2023-07-31T07:35:24;161272.63;;;33.49;54.26
5350;BME280;2697;42.144;24.794;2023-07-31T07:37:50;161101.41;;;32.84;55.71
5350;BME280;2697;42.144;24.794;2023-07-31T07:40:15;161136.22;;;32.97;56.28
5350;BME280;2697;42.144;24.794;2023-07-31T07:42:41;161059.97;;;32.68;56.80
5350;BME280;2697;42.144;24.794;2023-07-31T07:45:07;160973.06;;;32.35;57.12
5350;BME280;2697;42.144;24.794;2023-07-31T07:47:32;161096.03;;;32.82;56.21
5350;BME280;2697;42.144;24.794;2023-07-31T07:49:58;161002.44;;;32.46;57.07
5350;BME280;2697;42.144;24.794;2023-07-31T07:52:23;160859.38;;;31.92;58.59
5350;BME280;2697;42.144;24.794;2023-07-31T07:54:49;160912.88;;;32.12;58.61
5350;BME280;2697;42.144;24.794;2023-07-31T07:57:15;160908.81;;;32.11;56.78
5350;BME280;2697;42.144;24.794;2023-07-31T07:59:41;160930.22;;;32.19;56.77
5350;BME280;2697;42.144;24.794;2023-07-31T08:02:06;161006.44;;;32.48;57.30
5350;BME280;2697;42.144;24.794;2023-07-31T08:04:31;160900.81;;;32.08;57.32
5350;BME280;2697;42.144;24.794;2023-07-31T08:06:57;160832.66;;;31.82;58.28
5350;BME280;2697;42.144;24.794;2023-07-31T08:09:22;160791.22;;;31.66;58.97
5350;BME280;2697;42.144;24.794;2023-07-31T08:11:47;160764.50;;;31.56;58.78
5350;BME280;2697;42.144;24.794;2023-07-31T08:14:13;160605.47;;;30.95;61.93
5350;BME280;2697;42.144;24.794;2023-07-31T08:16:38;160606.81;;;30.96;62.61
5350;BME280;2697;42.144;24.794;2023-07-31T08:19:04;160566.72;;;30.80;63.02
5350;BME280;2697;42.144;24.794;2023-07-31T08:21:29;160502.63;;;30.56;61.70
5350;BME280;2697;42.144;24.794;2023-07-31T08:23:55;160574.78;;;30.83;61.31
5350;BME280;2697;42.144;24.794;2023-07-31T08:26:20;160455.88;;;30.38;62.95
5350;BME280;2697;42.144;24.794;2023-07-31T08:28:46;160321.00;;;29.87;62.79
5350;BME280;2697;42.144;24.794;2023-07-31T08:31:11;160417.16;;;30.23;61.81
5350;BME280;2697;42.144;24.794;2023-07-31T08:33:38;160482.59;;;30.48;59.84
5350;BME280;2697;42.144;24.794;2023-07-31T08:36:03;160544.06;;;30.72;59.92
5350;BME280;2697;42.144;24.794;2023-07-31T08:38:29;160604.16;;;30.95;58.18
5350;BME280;2697;42.144;24.794;2023-07-31T08:40:57;160625.53;;;31.03;57.38
5350;BME280;2697;42.144;24.794;2023-07-31T08:43:25;160648.22;;;31.11;55.97
5350;BME280;2697;42.144;24.794;2023-07-31T08:45:51;160574.78;;;30.83;56.28
5350;BME280;2697;42.144;24.794;2023-07-31T08:48:17;160572.13;;;30.82;56.43
5350;BME280;2697;42.144;24.794;2023-07-31T08:50:43;160548.06;;;30.73;58.40
5350;BME280;2697;42.144;24.794;2023-07-31T08:53:08;160646.91;;;31.11;59.08
5350;BME280;2697;42.144;24.794;2023-07-31T08:55:35;160781.84;;;31.62;57.29
5350;BME280;2697;42.144;24.794;2023-07-31T08:58:03;160761.78;;;31.55;57.04
5350;BME280;2697;42.144;24.794;2023-07-31T09:00:29;160712.38;;;31.36;57.03
5350;BME280;2697;42.144;24.794;2023-07-31T09:03:15;160676.31;;;31.22;56.15
5350;BME280;2697;42.144;24.794;2023-07-31T09:05:46;160640.19;;;31.08;57.48
5350;BME280;2697;42.144;24.794;2023-07-31T09:08:13;160768.50;;;31.57;54.64
5350;BME280;2697;42.144;24.794;2023-07-31T09:10:42;160684.31;;;31.25;55.80
5350;BME280;2697;42.144;24.794;2023-07-31T09:13:09;160793.91;;;31.67;55.18
5350;BME280;2697;42.144;24.794;2023-07-31T09:15:35;160854.06;;;31.90;53.36
5350;BME280;2697;42.144;24.794;2023-07-31T09:18:02;160871.44;;;31.96;52.75
5350;BME280;2697;42.144;24.794;2023-07-31T09:20:28;160606.81;;;30.96;55.88
5350;BME280;2697;42.144;24.794;2023-07-31T09:22:55;160640.19;;;31.08;56.40
5350;BME280;2697;42.144;24.794;2023-07-31T09:25:22;160711.03;;;31.35;55.38
5350;BME280;2697;42.144;24.794;2023-07-31T09:30:14;160995.78;;;32.44;52.35
5350;BME280;2697;42.144;24.794;2023-07-31T09:32:39;161069.28;;;32.72;51.18
5350;BME280;2697;42.144;24.794;2023-07-31T09:35:19;161002.44;;;32.46;50.70
5350;BME280;2697;42.144;24.794;2023-07-31T09:37:50;160896.81;;;32.06;50.71
5350;BME280;2697;42.144;24.794;2023-07-31T09:40:45;160971.72;;;32.35;49.92
5350;BME280;2697;42.144;24.794;2023-07-31T09:43:19;160736.41;;;31.45;51.58
5350;BME280;2697;42.144;24.794;2023-07-31T09:45:45;160844.72;;;31.86;51.46
5350;BME280;2697;42.144;24.794;2023-07-31T09:48:15;160807.22;;;31.72;52.29
5350;BME280;2697;42.144;24.794;2023-07-31T09:50:43;160644.22;;;31.10;53.80
5350;BME280;2697;42.144;24.794;2023-07-31T09:53:09;160751.13;;;31.51;53.60
5350;BME280;2697;42.144;24.794;2023-07-31T09:55:36;160842.06;;;31.85;51.63
5350;BME280;2697;42.144;24.794;2023-07-31T09:58:07;160820.66;;;31.77;51.53
5350;BME280;2697;42.144;24.794;2023-07-31T10:00:33;160906.16;;;32.10;51.03
5350;BME280;2697;42.144;24.794;2023-07-31T10:03:00;160982.38;;;32.39;50.01
5350;BME280;2697;42.144;24.794;2023-07-31T10:05:33;160993.09;;;32.43;48.80
5350;BME280;2697;42.144;24.794;2023-07-31T10:07:59;161179.00;;;33.13;46.49
5350;BME280;2697;42.144;24.794;2023-07-31T10:10:25;161100.06;;;32.83;45.80
5350;BME280;2697;42.144;24.794;2023-07-31T10:12:53;161146.88;;;33.01;45.67
5350;BME280;2697;42.144;24.794;2023-07-31T10:15:19;161126.81;;;32.94;45.87
5350;BME280;2697;42.144;24.794;2023-07-31T10:17:47;161126.81;;;32.94;46.19
5350;BME280;2697;42.144;24.794;2023-07-31T10:20:14;161079.97;;;32.76;47.72
5350;BME280;2697;42.144;24.794;2023-07-31T10:22:42;161114.81;;;32.89;46.65
5350;BME280;2697;42.144;24.794;2023-07-31T10:25:09;160973.06;;;32.35;47.95
5350;BME280;2697;42.144;24.794;2023-07-31T10:27:38;161041.22;;;32.61;47.14
5350;BME280;2697;42.144;24.794;2023-07-31T10:30:06;161010.50;;;32.49;47.31
5350;BME280;2697;42.144;24.794;2023-07-31T10:32:33;160741.81;;;31.47;51.08
5350;BME280;2697;42.144;24.794;2023-07-31T10:34:59;160576.13;;;30.84;54.80
5350;BME280;2697;42.144;24.794;2023-07-31T10:37:29;160609.47;;;30.97;59.56
5350;BME280;2697;42.144;24.794;2023-07-31T10:40:06;160624.19;;;31.02;61.07
5350;BME280;2697;42.144;24.794;2023-07-31T10:42:45;160676.31;;;31.22;60.03
5350;BME280;2697;42.144;24.794;2023-07-31T10:45:12;160594.81;;;30.91;61.19
5350;BME280;2697;42.144;24.794;2023-07-31T10:47:45;160717.75;;;31.38;59.81
5350;BME280;2697;42.144;24.794;2023-07-31T10:50:21;160828.66;;;31.80;57.62
5350;BME280;2697;42.144;24.794;2023-07-31T10:52:50;160854.06;;;31.90;56.85
5350;BME280;2697;42.144;24.794;2023-07-31T10:55:40;160765.84;;;31.56;57.59
5350;BME280;2697;42.144;24.794;2023-07-31T10:58:06;160876.78;;;31.98;56.38
5350;BME280;2697;42.144;24.794;2023-07-31T11:00:32;160540.03;;;30.70;59.86
5350;BME280;2697;42.144;24.794;2023-07-31T11:03:08;160692.38;;;31.28;57.96
5350;BME280;2697;42.144;24.794;2023-07-31T11:05:48;160820.66;;;31.77;56.45
5350;BME280;2697;42.144;24.794;2023-07-31T11:08:19;160868.75;;;31.95;55.04
5350;BME280;2697;42.144;24.794;2023-07-31T11:10:47;160842.06;;;31.85;55.82
5350;BME280;2697;42.144;24.794;2023-07-31T11:13:13;160875.44;;;31.98;54.83
5350;BME280;2697;42.144;24.794;2023-07-31T11:15:39;160812.63;;;31.74;55.94
5350;BME280;2697;42.144;24.794;2023-07-31T11:18:05;160727.09;;;31.41;57.13
5350;BME280;2697;42.144;24.794;2023-07-31T11:20:36;160499.97;;;30.55;59.55
5350;BME280;2697;42.144;24.794;2023-07-31T11:23:04;160234.28;;;29.54;65.54
5350;BME280;2697;42.144;24.794;2023-07-31T11:25:31;160166.16;;;29.28;68.50
5350;BME280;2697;42.144;24.794;2023-07-31T11:28:02;160123.47;;;29.11;70.45
5350;BME280;2697;42.144;24.794;2023-07-31T11:30:28;160067.44;;;28.90;70.41
5350;BME280;2697;42.144;24.794;2023-07-31T11:32:55;159991.38;;;28.61;72.90
5350;BME280;2697;42.144;24.794;2023-07-31T11:35:20;159846.00;;;28.05;75.87
5350;BME280;2697;42.144;24.794;2023-07-31T11:37:45;159770.00;;;27.76;76.49
5350;BME280;2697;42.144;24.794;2023-07-31T11:40:11;159836.69;;;28.02;74.34
5350;BME280;2697;42.144;24.794;2023-07-31T11:42:36;159811.34;;;27.92;74.84
5350;BME280;2697;42.144;24.794;2023-07-31T11:45:06;159761.97;;;27.73;75.39
5350;BME280;2697;42.144;24.794;2023-07-31T11:47:33;159840.66;;;28.03;73.32
5350;BME280;2697;42.144;24.794;2023-07-31T11:50:05;159968.69;;;28.52;70.83
5350;BME280;2697;42.144;24.794;2023-07-31T11:52:34;160080.81;;;28.95;71.10
5350;BME280;2697;42.144;24.794;2023-07-31T11:55:03;160114.13;;;29.08;74.48
5350;BME280;2697;42.144;24.794;2023-07-31T11:57:29;160096.78;;;29.01;75.44
5350;BME280;2697;42.144;24.794;2023-07-31T11:59:55;160219.53;;;29.48;74.45
5350;BME280;2697;42.144;24.794;2023-07-31T12:02:21;160226.28;;;29.50;71.71
5350;BME280;2697;42.144;24.794;2023-07-31T12:04:47;160369.03;;;30.05;68.28
5350;BME280;2697;42.144;24.794;2023-07-31T12:07:13;160417.16;;;30.23;67.21
5350;BME280;2697;42.144;24.794;2023-07-31T12:09:38;160426.53;;;30.27;66.12
5350;BME280;2697;42.144;24.794;2023-07-31T12:12:19;160361.03;;;30.02;66.03
5350;BME280;2697;42.144;24.794;2023-07-31T12:14:45;160406.50;;;30.19;65.45
5350;BME280;2697;42.144;24.794;2023-07-31T12:17:10;160482.59;;;30.48;64.68
5350;BME280;2697;42.144;24.794;2023-07-31T12:19:36;160585.44;;;30.87;64.17
5350;BME280;2697;42.144;24.794;2023-07-31T12:22:13;160548.06;;;30.73;61.94
5350;BME280;2697;42.144;24.794;2023-07-31T12:24:40;160549.41;;;30.74;60.08
5350;BME280;2697;42.144;24.794;2023-07-31T12:27:13;160541.38;;;30.71;60.14
5350;BME280;2697;42.144;24.794;2023-07-31T12:29:39;160626.84;;;31.03;59.29
5350;BME280;2697;42.144;24.794;2023-07-31T12:32:19;160676.31;;;31.22;58.47
5350;BME280;2697;42.144;24.794;2023-07-31T12:34:45;160554.75;;;30.76;60.49
5350;BME280;2697;42.144;24.794;2023-07-31T12:37:10;160478.59;;;30.47;60.99
5350;BME280;2697;42.144;24.794;2023-07-31T12:39:35;160544.06;;;30.72;59.77
5350;BME280;2697;42.144;24.794;2023-07-31T12:42:01;160598.81;;;30.92;59.16
5350;BME280;2697;42.144;24.794;2023-07-31T12:44:26;160719.09;;;31.38;51.46
5350;BME280;2697;42.144;24.794;2023-07-31T12:46:51;160713.69;;;31.36;52.12
5350;BME280;2697;42.144;24.794;2023-07-31T12:49:17;160733.75;;;31.44;50.92
5350;BME280;2697;42.144;24.794;2023-07-31T12:51:42;160692.38;;;31.28;53.18
5350;BME280;2697;42.144;24.794;2023-07-31T12:54:07;160657.56;;;31.15;61.51
5350;BME280;2697;42.144;24.794;2023-07-31T12:56:33;160618.88;;;31.00;65.14
5350;BME280;2697;42.144;24.794;2023-07-31T12:58:58;160834.00;;;31.82;62.04
5350;BME280;2697;42.144;24.794;2023-07-31T13:01:24;160807.22;;;31.72;62.83
5350;BME280;2697;42.144;24.794;2023-07-31T13:03:49;160741.81;;;31.47;64.45
5350;BME280;2697;42.144;24.794;2023-07-31T13:06:14;160572.13;;;30.82;66.87
5350;BME280;2697;42.144;24.794;2023-07-31T13:08:40;160451.88;;;30.36;67.43
5350;BME280;2697;42.144;24.794;2023-07-31T13:11:05;160438.50;;;30.31;67.40